This is the latest recevied weather packets stored in our database for station/object E22ZMG-3. If no packets are shown the sender has not sent any weather packets the latest 10 day(s).
| Time | Temp. | Humidity | Pressure | Rain* | Wind** | Luminosity | Snow |
|---|---|---|---|---|---|---|---|
| 1778045980 | 40.56° C | 32% | 975 hPa | - | - | 0 W/m² | - |
| 1778045355 | 40.56° C | 33% | 975 hPa | - | - | 0 W/m² | - |
| 1778044730 | 40° C | 34% | 975 hPa | - | - | 0 W/m² | - |
| 1778044105 | 41.11° C | 32% | 975 hPa | - | - | 0 W/m² | - |
| 1778043478 | 40° C | 35% | 976 hPa | - | - | 0 W/m² | - |
| 1778042854 | 39.44° C | 35% | 976 hPa | - | - | 0 W/m² | - |
| 1778042229 | 39.44° C | 36% | 976 hPa | - | - | 0 W/m² | - |
| 1778041605 | 38.33° C | 38% | 976 hPa | - | - | 0 W/m² | - |
| 1778040979 | 38.33° C | 39% | 976 hPa | - | - | 0 W/m² | - |
| 1778040354 | 37.78° C | 39% | 976 hPa | - | - | 0 W/m² | - |
| 1778039729 | 38.33° C | 39% | 976 hPa | - | - | 0 W/m² | - |
| 1778039105 | 37.78° C | 42% | 976 hPa | - | - | 0 W/m² | - |
| 1778038480 | 37.22° C | 41% | 977 hPa | - | - | 0 W/m² | - |
| 1778037856 | 36.67° C | 44% | 977 hPa | - | - | 0 W/m² | - |
| 1778037231 | 36.11° C | 44% | 977 hPa | - | - | 0 W/m² | - |
| 1778036605 | 35.56° C | 44% | 977 hPa | - | - | 0 W/m² | - |
| 1778036382 | 36.67° C | 43% | 977 hPa | - | - | 0 W/m² | - |
| 1778035756 | 35.56° C | 46% | 977 hPa | - | - | 0 W/m² | - |
| 1778035132 | 36.11° C | 45% | 977 hPa | - | - | 0 W/m² | - |
| 1778034507 | 36.11° C | 45% | 977 hPa | - | - | 0 W/m² | - |
| 1778033882 | 36.11° C | 44% | 977 hPa | - | - | 0 W/m² | - |
| 1778033258 | 35° C | 48% | 977 hPa | - | - | 0 W/m² | - |
| 1778032633 | 34.44° C | 48% | 977 hPa | - | - | 0 W/m² | - |
| 1778032009 | 33.89° C | 51% | 977 hPa | - | - | 0 W/m² | - |
| 1778031384 | 33.33° C | 52% | 977 hPa | - | - | 0 W/m² | - |
* Rain since midnight (hover to see other rain measurements)
** Current wind speed in m/s (hover to see current wind gust speed)